Time;durP1;ratioP1;P1;durP2;ratioP2;P2;SDS_P1;SDS_P2;PMS_P1;PMS_P2;Temp;Humidity;BMP_temperature;BMP_pressure;BME280_temperature;BME280_humidity;BME280_pressure;Samples;Min_cycle;Max_cycle;Signal;HPM_P1;HPM_P2
2022/11/19 00:01:48;;;;;;;108.67;44.90;;;;;;;12.57;100.00;98378.88;5053372;28;20685;-56
2022/11/19 00:04:15;;;;;;;96.03;41.43;;;;;;;12.55;100.00;98360.03;5054122;28;20242;-56
2022/11/19 00:06:42;;;;;;;107.77;43.40;;;;;;;12.35;100.00;98338.75;5053804;28;20191;-56
2022/11/19 00:09:13;;;;;;;129.38;53.00;;;;;;;12.56;100.00;98358.28;5052437;28;20525;-56
2022/11/19 00:14:24;;;;;;;110.07;45.03;;;;;;;12.46;100.00;98346.34;5051792;28;20262;-56
2022/11/19 00:16:52;;;;;;;104.70;43.63;;;;;;;12.55;100.00;98375.47;5054257;28;20194;-56
2022/11/19 00:19:19;;;;;;;106.60;41.83;;;;;;;12.54;100.00;98383.19;5054036;28;20577;-56
2022/11/19 00:21:47;;;;;;;120.65;50.42;;;;;;;12.56;100.00;98377.16;5056055;28;20454;-56
2022/11/19 00:24:14;;;;;;;110.37;45.17;;;;;;;12.64;100.00;98374.50;5047480;28;20574;-56
2022/11/19 00:26:41;;;;;;;105.63;42.53;;;;;;;12.55;100.00;98380.63;5049182;28;20185;-56
2022/11/19 00:29:07;;;;;;;97.40;39.97;;;;;;;12.49;100.00;98392.69;5058987;28;20213;-56
2022/11/19 00:31:34;;;;;;;103.23;40.03;;;;;;;12.47;100.00;98381.56;5045868;28;20571;-56
2022/11/19 00:34:02;;;;;;;86.63;37.40;;;;;;;12.47;100.00;98386.72;5049594;28;20188;-56
2022/11/19 00:36:29;;;;;;;93.00;37.23;;;;;;;12.43;100.00;98389.31;5046937;28;20650;-56
2022/11/19 00:38:56;;;;;;;86.07;36.57;;;;;;;12.39;100.00;98403.06;5049239;28;20203;-56
2022/11/19 00:41:23;;;;;;;91.77;37.87;;;;;;;12.40;100.00;98409.94;5052262;28;20189;-56
2022/11/19 00:43:50;;;;;;;91.07;37.87;;;;;;;12.40;100.00;98424.53;5050979;28;20194;-57
2022/11/19 00:46:19;;;;;;;89.00;37.03;;;;;;;12.42;100.00;98420.22;5051047;28;20193;-56
2022/11/19 00:48:46;;;;;;;93.00;36.93;;;;;;;12.38;100.00;98416.84;5044713;28;20217;-55
2022/11/19 00:51:15;;;;;;;86.37;36.13;;;;;;;12.35;100.00;98410.84;5053373;28;20728;-56
2022/11/19 00:53:43;;;;;;;98.30;37.50;;;;;;;12.35;100.00;98421.16;5053742;28;20188;-55
2022/11/19 00:56:11;;;;;;;85.40;37.47;;;;;;;12.38;100.00;98431.44;5053631;28;20238;-55
2022/11/19 00:58:39;;;;;;;85.27;37.93;;;;;;;12.30;100.00;98440.94;5053368;28;20188;-53
2022/11/19 01:01:07;;;;;;;79.57;35.73;;;;;;;12.26;100.00;98429.81;5047544;28;20574;-53
2022/11/19 01:03:34;;;;;;;78.77;35.20;;;;;;;12.24;100.00;98431.53;5052277;28;20188;-55
2022/11/19 01:06:01;;;;;;;77.97;35.10;;;;;;;12.26;100.00;98429.81;5053567;28;20200;-55
2022/11/19 01:08:29;;;;;;;74.10;34.40;;;;;;;12.21;100.00;98444.44;5053182;28;20212;-55
2022/11/19 01:10:56;;;;;;;71.80;33.83;;;;;;;12.21;100.00;98444.44;5051832;28;20275;-55
2022/11/19 01:13:35;;;;;;;67.43;32.30;;;;;;;12.24;100.00;98441.84;5051399;28;20267;-55
2022/11/19 01:16:04;;;;;;;74.50;33.37;;;;;;;12.24;100.00;98452.16;5051687;28;20196;-56
2022/11/19 01:18:31;;;;;;;74.60;33.17;;;;;;;12.20;100.00;98460.75;5051724;28;20222;-53
2022/11/19 01:20:58;;;;;;;63.70;32.10;;;;;;;12.16;100.00;98453.94;5053568;28;20582;-55
2022/11/19 01:23:25;;;;;;;69.83;31.93;;;;;;;12.09;100.00;98459.09;5053077;28;20248;-55
2022/11/19 01:25:53;;;;;;;78.57;33.27;;;;;;;12.01;100.00;98478.88;5048418;28;20196;-55
2022/11/19 01:28:20;;;;;;;66.83;33.60;;;;;;;11.97;100.00;98493.53;5051778;28;20219;-55
2022/11/19 01:30:47;;;;;;;72.80;35.17;;;;;;;11.82;100.00;98457.56;5053179;28;20266;-55
2022/11/19 01:33:14;;;;;;;67.17;32.47;;;;;;;11.95;100.00;98478.94;5052815;28;20228;-55
2022/11/19 01:35:41;;;;;;;64.20;31.77;;;;;;;11.89;100.00;98489.28;5053606;28;20314;-55
2022/11/19 01:38:07;;;;;;;67.70;36.00;;;;;;;11.84;100.00;98499.56;5052680;28;20443;-55
2022/11/19 01:40:41;;;;;;;57.13;30.63;;;;;;;11.85;100.00;98509.00;5053313;28;20242;-55
2022/11/19 01:43:12;;;;;;;62.83;30.90;;;;;;;11.87;100.00;98530.44;5053060;28;20192;-55
2022/11/19 01:45:41;;;;;;;60.10;31.90;;;;;;;11.88;100.00;98533.88;5052984;28;20191;-55
2022/11/19 01:48:13;;;;;;;62.07;32.47;;;;;;;11.88;100.00;98533.88;5053472;28;20200;-55
2022/11/19 01:50:42;;;;;;;63.33;35.63;;;;;;;11.94;100.00;98534.72;5052026;28;20439;-55
2022/11/19 01:53:10;;;;;;;59.20;30.90;;;;;;;11.97;100.00;98534.69;5052871;28;20192;-55
2022/11/19 01:55:38;;;;;;;59.47;32.57;;;;;;;12.00;100.00;98539.84;5052552;28;20192;-55
2022/11/19 01:58:07;;;;;;;58.20;31.83;;;;;;;12.10;100.00;98556.09;5052773;28;20188;-55
2022/11/19 02:00:35;;;;;;;51.10;29.07;;;;;;;12.05;100.00;98545.81;5052937;28;20563;-55
2022/11/19 02:03:02;;;;;;;59.87;31.87;;;;;;;12.21;100.00;98551.72;5052917;28;20215;-54
2022/11/19 02:05:29;;;;;;;52.13;31.10;;;;;;;12.25;100.00;98556.84;5052680;28;20184;-55
2022/11/19 02:07:58;;;;;;;57.27;32.20;;;;;;;12.28;100.00;98566.28;5038136;28;20228;-55
2022/11/19 02:10:30;;;;;;;51.67;30.47;;;;;;;12.27;100.00;98568.03;5032618;28;20640;-55
2022/11/19 02:13:07;;;;;;;51.53;30.17;;;;;;;12.31;100.00;98561.97;5032417;28;20185;-55
2022/11/19 02:15:44;;;;;;;51.40;30.30;;;;;;;12.29;100.00;98561.13;5032585;28;20746;-55
2022/11/19 02:18:30;;;;;;;51.57;31.53;;;;;;;12.36;100.00;98564.53;5032466;28;20193;-55
2022/11/19 02:21:11;;;;;;;46.90;29.37;;;;;;;12.40;100.00;98561.06;5032466;28;20189;-55
2022/11/19 02:24:13;;;;;;;47.07;29.33;;;;;;;12.39;100.00;98549.91;5032207;28;20192;-55
2022/11/19 02:27:01;;;;;;;52.07;35.37;;;;;;;12.52;100.00;98549.84;5031155;28;20444;-55
2022/11/19 02:30:17;;;;;;;48.67;29.60;;;;;;;12.60;100.00;98540.31;5032158;28;20271;-55
2022/11/19 02:32:51;;;;;;;47.13;30.00;;;;;;;12.54;100.00;98532.63;4990719;28;20222;-55
2022/11/19 02:35:27;;;;;;;47.77;29.47;;;;;;;12.55;100.00;98534.34;4990858;28;20206;-55
2022/11/19 02:38:01;;;;;;;46.67;32.77;;;;;;;12.60;100.00;98532.59;4989645;28;20485;-55
2022/11/19 02:40:31;;;;;;;46.83;29.20;;;;;;;12.64;100.00;98529.13;4991288;28;20206;-55
2022/11/19 02:43:07;;;;;;;40.67;26.93;;;;;;;12.67;100.00;98532.53;4990802;28;20303;-55
2022/11/19 02:45:38;;;;;;;38.00;25.33;;;;;;;12.66;100.00;98532.56;4990822;28;20624;-56
2022/11/19 02:48:10;;;;;;;35.50;25.87;;;;;;;12.69;100.00;98535.94;4990731;28;20353;-55
2022/11/19 02:50:42;;;;;;;39.47;25.47;;;;;;;12.65;100.00;98534.28;4990609;28;20225;-55
2022/11/19 02:53:10;;;;;;;34.13;25.40;;;;;;;12.74;100.00;98546.25;4990662;28;20289;-55
2022/11/19 02:55:38;;;;;;;35.33;24.60;;;;;;;12.71;100.00;98554.84;4990443;28;20198;-55
2022/11/19 02:58:10;;;;;;;35.27;25.27;;;;;;;12.69;100.00;98550.59;4990500;28;20244;-55
2022/11/19 03:06:17;;;;;;;35.17;24.30;;;;;;;12.48;100.00;98546.41;5000370;28;20200;-55
2022/11/19 03:08:45;;;;;;;39.30;24.80;;;;;;;12.43;100.00;98553.31;5034041;28;20195;-55
2022/11/19 03:11:20;;;;;;;44.88;28.83;;;;;;;12.44;100.00;98550.72;5035526;28;20432;-56
2022/11/19 03:16:43;;;;;;;38.80;24.70;;;;;;;12.51;100.00;98555.84;5035922;28;20268;-55
2022/11/19 03:19:19;;;;;;;39.97;27.23;;;;;;;12.54;100.00;98556.69;5035875;28;20655;-56
2022/11/19 03:21:54;;;;;;;43.73;27.90;;;;;;;12.56;100.00;98565.25;5035815;28;20204;-55
2022/11/19 03:24:27;;;;;;;39.80;27.33;;;;;;;12.50;100.00;98592.78;5035591;28;20197;-55
2022/11/19 03:26:59;;;;;;;37.50;26.27;;;;;;;12.53;100.00;98608.22;5035672;28;20185;-55
2022/11/19 03:29:27;;;;;;;40.20;26.43;;;;;;;12.59;100.00;98603.88;5035692;28;20216;-55
2022/11/19 03:32:01;;;;;;;34.20;24.63;;;;;;;12.53;100.00;98603.06;5035665;28;20301;-55
2022/11/19 03:34:31;;;;;;;41.30;28.40;;;;;;;12.63;100.00;98612.47;5035466;28;20796;-56
2022/11/19 03:37:01;;;;;;;37.83;24.33;;;;;;;12.65;100.00;98614.16;5035267;28;20189;-55
2022/11/19 03:39:28;;;;;;;33.70;24.73;;;;;;;12.67;100.00;98612.41;5035665;28;20193;-55
2022/11/19 03:41:57;;;;;;;37.47;25.60;;;;;;;12.68;100.00;98623.59;5035494;28;20185;-55
2022/11/19 03:44:28;;;;;;;34.67;24.50;;;;;;;12.61;100.00;98627.91;5035362;28;20189;-55
2022/11/19 03:47:00;;;;;;;40.10;25.50;;;;;;;12.58;100.00;98642.56;5034985;28;20722;-55
2022/11/19 03:49:33;;;;;;;40.33;26.27;;;;;;;12.46;100.00;98638.31;5035317;28;20683;-55
2022/11/19 03:52:06;;;;;;;38.70;26.37;;;;;;;12.45;100.00;98636.59;5035433;28;20222;-56
2022/11/19 03:54:33;;;;;;;45.13;30.43;;;;;;;12.43;100.00;98643.47;5035439;28;20189;-55
2022/11/19 03:57:01;;;;;;;45.13;30.67;;;;;;;12.46;100.00;98658.06;5048339;28;20196;-55
2022/11/19 03:59:28;;;;;;;50.55;34.85;;;;;;;12.48;100.00;98667.50;5054359;28;20450;-56
2022/11/19 04:01:58;;;;;;;47.80;31.43;;;;;;;12.61;100.00;98663.16;5069799;28;20196;-56
2022/11/19 04:04:37;;;;;;;42.20;29.33;;;;;;;12.60;100.00;98666.59;5075178;28;20184;-55
2022/11/19 04:07:08;;;;;;;43.67;30.33;;;;;;;12.57;100.00;98675.19;5075421;28;20328;-55
2022/11/19 04:09:35;;;;;;;49.07;31.53;;;;;;;12.52;100.00;98668.34;5074774;28;20688;-54
2022/11/19 04:12:01;;;;;;;51.07;33.77;;;;;;;12.41;100.00;98663.25;5074775;28;20198;-56
2022/11/19 04:14:28;;;;;;;51.70;33.30;;;;;;;12.35;100.00;98660.69;5075013;28;20249;-56
2022/11/19 04:16:55;;;;;;;52.70;33.23;;;;;;;12.29;100.00;98659.00;5074544;28;20595;-56
2022/11/19 04:19:23;;;;;;;51.57;30.93;;;;;;;12.29;100.00;98666.72;5074689;28;20202;-56
2022/11/19 04:21:50;;;;;;;53.73;32.47;;;;;;;12.32;100.00;98682.19;5074702;28;20212;-56
2022/11/19 04:24:18;;;;;;;51.53;32.73;;;;;;;12.37;100.00;98695.03;5074591;28;20183;-55
2022/11/19 04:26:45;;;;;;;57.27;34.17;;;;;;;12.35;100.00;98691.59;5074485;28;20253;-56
2022/11/19 04:29:12;;;;;;;47.80;30.07;;;;;;;12.31;100.00;98695.91;5074497;28;20298;-56
2022/11/19 04:31:38;;;;;;;57.87;30.97;;;;;;;12.28;100.00;98702.78;5074002;28;20226;-56
2022/11/19 04:34:05;;;;;;;51.50;30.87;;;;;;;12.15;100.00;98691.66;5074806;28;20183;-56
2022/11/19 04:36:32;;;;;;;52.73;30.00;;;;;;;12.20;100.00;98707.09;5074247;28;20191;-56
2022/11/19 04:38:59;;;;;;;50.23;30.70;;;;;;;12.16;100.00;98705.41;5074365;28;20192;-56
2022/11/19 04:41:27;;;;;;;49.77;28.77;;;;;;;12.08;100.00;98704.56;5074542;28;20624;-56
2022/11/19 04:43:54;;;;;;;52.43;29.93;;;;;;;12.01;100.00;98713.16;5074037;28;20191;-56
2022/11/19 04:46:21;;;;;;;58.93;35.33;;;;;;;12.01;100.00;98715.72;5073731;28;20434;-55
2022/11/19 04:48:48;;;;;;;45.33;29.00;;;;;;;12.03;100.00;98716.59;5074121;28;20196;-56
2022/11/19 04:51:15;;;;;;;49.87;31.30;;;;;;;12.06;100.00;98711.44;5073829;28;20222;-56
2022/11/19 04:53:41;;;;;;;60.30;31.80;;;;;;;11.86;100.00;98711.47;5074210;28;20192;-56
2022/11/19 04:56:09;;;;;;;52.37;31.10;;;;;;;11.81;100.00;98716.63;5073578;28;20535;-58
2022/11/19 04:58:37;;;;;;;61.00;36.87;;;;;;;11.69;100.00;98726.94;5070283;28;20523;-56
2022/11/19 05:01:04;;;;;;;47.00;31.27;;;;;;;11.73;100.00;98738.06;5073467;28;20227;-56
2022/11/19 05:03:31;;;;;;;47.63;30.07;;;;;;;11.64;100.00;98735.47;5074156;28;20207;-56
2022/11/19 05:05:58;;;;;;;51.23;29.77;;;;;;;11.48;100.00;98728.63;5073600;28;20666;-56
2022/11/19 05:08:25;;;;;;;51.50;31.20;;;;;;;11.52;100.00;98743.19;5072096;28;20193;-56
2022/11/19 05:10:51;;;;;;;48.73;29.53;;;;;;;11.51;100.00;98742.31;5068719;28;20322;-56
2022/11/19 05:13:18;;;;;;;50.90;32.00;;;;;;;11.49;100.00;98754.34;5074209;28;20187;-56
2022/11/19 05:15:46;;;;;;;54.80;33.37;;;;;;;11.55;100.00;98764.63;5073634;28;20258;-56
2022/11/19 05:18:13;;;;;;;57.17;34.33;;;;;;;11.30;100.00;98762.03;5073457;28;20654;-55
2022/11/19 05:20:41;;;;;;;67.83;39.47;;;;;;;11.31;100.00;98761.19;5072081;28;20203;-56
2022/11/19 05:23:07;;;;;;;70.33;38.37;;;;;;;11.19;100.00;98768.03;5064865;28;20206;-56
2022/11/19 05:25:34;;;;;;;85.13;41.73;;;;;;;11.18;100.00;98786.88;5053621;28;20188;-56
2022/11/19 05:28:01;;;;;;;81.77;41.03;;;;;;;11.13;100.00;98785.13;5052763;28;20658;-56
2022/11/19 05:30:28;;;;;;;103.60;42.87;;;;;;;11.08;100.00;98790.28;5065860;28;20235;-56
2022/11/19 05:32:56;;;;;;;87.20;41.17;;;;;;;11.05;100.00;98797.97;5053540;28;20224;-55
2022/11/19 05:35:23;;;;;;;81.23;40.07;;;;;;;10.96;100.00;98792.78;5053302;28;20218;-57
2022/11/19 05:37:50;;;;;;;78.10;39.27;;;;;;;10.89;100.00;98783.34;5059705;28;20287;-56
2022/11/19 05:40:18;;;;;;;78.30;36.73;;;;;;;10.86;100.00;98805.59;5072751;28;20654;-56
2022/11/19 05:42:45;;;;;;;62.67;34.87;;;;;;;10.82;100.00;98807.34;5073037;28;20322;-56
2022/11/19 05:45:12;;;;;;;64.87;34.53;;;;;;;10.81;100.00;98815.00;5072990;28;20615;-56
2022/11/19 05:47:39;;;;;;;54.97;33.97;;;;;;;10.85;100.00;98824.47;5072934;28;20183;-56
2022/11/19 05:50:08;;;;;;;67.03;34.97;;;;;;;10.91;100.00;98833.03;5072516;28;20279;-56
2022/11/19 05:52:35;;;;;;;48.83;31.47;;;;;;;10.87;100.00;98838.19;5073610;28;20638;-56
2022/11/19 05:55:02;;;;;;;55.13;34.07;;;;;;;10.80;100.00;98838.97;5073113;28;20192;-56
2022/11/19 05:57:29;;;;;;;52.13;31.50;;;;;;;10.78;100.00;98843.25;5064733;28;20199;-59
2022/11/19 05:59:56;;;;;;;55.83;32.40;;;;;;;10.77;100.00;98850.09;5050172;28;20196;-56
2022/11/19 06:02:22;;;;;;;53.70;32.40;;;;;;;10.63;100.00;98865.44;5052175;28;20200;-56
2022/11/19 06:04:49;;;;;;;51.80;31.03;;;;;;;10.70;100.00;98868.91;5052248;28;20196;-56
2022/11/19 06:07:18;;;;;;;52.90;34.27;;;;;;;10.81;100.00;98884.38;5043638;28;20204;-56
2022/11/19 06:09:44;;;;;;;46.97;32.63;;;;;;;10.80;100.00;98890.38;5032300;28;20216;-56
2022/11/19 06:12:11;;;;;;;44.67;30.33;;;;;;;10.80;100.00;98882.66;5032668;28;20200;-56
2022/11/19 06:14:38;;;;;;;42.90;30.67;;;;;;;10.82;100.00;98884.41;5032426;28;20741;-55
2022/11/19 06:17:05;;;;;;;49.43;32.20;;;;;;;10.97;100.00;98894.75;5037858;28;20196;-56
2022/11/19 06:19:32;;;;;;;47.17;32.60;;;;;;;11.00;100.00;98902.50;5049987;28;20932;-57
2022/11/19 06:21:59;;;;;;;52.00;31.67;;;;;;;11.02;100.00;98887.94;5045925;28;20196;-55
2022/11/19 06:24:27;;;;;;;52.17;29.57;;;;;;;11.16;100.00;98895.69;5039961;28;20207;-56
2022/11/19 06:26:54;;;;;;;43.93;30.83;;;;;;;11.27;100.00;98887.19;5049881;28;20204;-55
2022/11/19 06:29:20;;;;;;;41.60;28.63;;;;;;;11.35;100.00;98889.75;5051694;28;20420;-55
2022/11/19 06:31:47;;;;;;;36.93;26.53;;;;;;;11.36;100.00;98894.06;5048640;28;20305;-55
2022/11/19 06:34:14;;;;;;;32.73;24.63;;;;;;;10.82;100.00;98796.19;5051306;28;20196;-55
2022/11/19 06:36:41;;;;;;;34.77;25.43;;;;;;;11.43;100.00;98897.50;5051208;28;20199;-55
2022/11/19 06:39:09;;;;;;;38.00;26.57;;;;;;;11.50;100.00;98902.69;5051445;28;20192;-55
2022/11/19 06:41:37;;;;;;;35.70;25.87;;;;;;;11.57;100.00;98914.72;5051252;28;20633;-55
2022/11/19 06:44:04;;;;;;;39.93;27.90;;;;;;;11.58;100.00;98908.72;5050483;28;20196;-56
2022/11/19 06:46:31;;;;;;;40.80;28.60;;;;;;;11.58;100.00;98919.00;5048554;28;20188;-56
2022/11/19 06:48:58;;;;;;;37.37;27.77;;;;;;;11.62;100.00;98922.47;5051121;28;20198;-55
2022/11/19 06:51:25;;;;;;;39.40;27.63;;;;;;;11.67;100.00;98921.59;5049376;28;20220;-55
2022/11/19 06:53:51;;;;;;;37.87;26.10;;;;;;;11.72;100.00;98911.34;5048755;28;20266;-56
2022/11/19 06:56:18;;;;;;;41.97;27.40;;;;;;;11.78;100.00;98916.53;5051251;28;20192;-56
2022/11/19 06:58:46;;;;;;;42.30;29.60;;;;;;;11.79;100.00;98920.78;5067642;28;20213;-56
2022/11/19 07:01:14;;;;;;;38.83;26.77;;;;;;;11.75;100.00;98907.09;5031512;28;20193;-56
2022/11/19 07:03:41;;;;;;;39.30;27.23;;;;;;;11.86;100.00;98922.53;5049203;28;20195;-56
2022/11/19 07:06:08;;;;;;;38.40;28.95;;;;;;;11.93;100.00;98926.84;5050841;28;20795;-56
2022/11/19 07:08:36;;;;;;;41.17;27.63;;;;;;;11.98;100.00;98922.53;5051020;28;20257;-55
2022/11/19 07:11:24;;;;;;;37.00;26.33;;;;;;;11.97;100.00;98917.41;5050997;28;20211;-57
2022/11/19 07:13:59;;;;;;;39.27;28.57;;;;;;;11.99;100.00;98924.28;5050207;28;20230;-55
2022/11/19 07:16:28;;;;;;;40.47;28.07;;;;;;;12.09;100.00;98935.41;5051446;28;20701;-55
2022/11/19 07:18:57;;;;;;;42.97;29.20;;;;;;;12.04;100.00;98932.84;5051393;28;20192;-55
2022/11/19 07:21:24;;;;;;;39.43;32.20;;;;;;;12.24;100.00;98950.91;5050500;28;20926;-56
2022/11/19 07:23:51;;;;;;;42.30;29.23;;;;;;;12.37;100.00;98939.75;5051962;28;20438;-56
2022/11/19 07:26:18;;;;;;;41.07;28.03;;;;;;;12.49;100.00;98944.03;5047408;28;20196;-57
2022/11/19 07:28:45;;;;;;;44.13;29.67;;;;;;;12.53;100.00;98943.16;5042340;28;20208;-56
2022/11/19 07:31:14;;;;;;;40.83;29.10;;;;;;;12.62;100.00;98944.03;5051200;28;20235;-56
2022/11/19 07:33:41;;;;;;;37.27;27.77;;;;;;;12.61;100.00;98956.94;5032098;28;20233;-56
2022/11/19 07:36:10;;;;;;;42.90;29.90;;;;;;;12.70;100.00;98947.47;5031571;28;20185;-56
2022/11/19 07:38:37;;;;;;;41.70;28.73;;;;;;;12.75;100.00;98934.56;5031423;28;20190;-55
2022/11/19 07:42:47;;;;;;;42.00;29.87;;;;;;;12.80;100.00;98948.31;5031459;28;20193;-56
2022/11/19 07:43:52;;;;;;;41.63;29.07;;;;;;;12.92;100.00;98953.44;5031134;28;20225;-55
2022/11/19 07:46:20;;;;;;;40.63;27.90;;;;;;;12.98;100.00;98961.16;5031153;28;20295;-56
2022/11/19 07:48:47;;;;;;;39.00;29.47;;;;;;;13.01;100.00;98964.59;5031395;28;20541;-57
2022/11/19 07:51:14;;;;;;;42.78;33.22;;;;;;;13.12;100.00;98958.59;5030094;28;20445;-56
2022/11/19 07:53:41;;;;;;;38.73;30.53;;;;;;;13.36;99.42;98967.13;5031826;28;20195;-57
2022/11/19 07:56:09;;;;;;;41.60;32.23;;;;;;;13.34;98.23;98984.34;5034694;28;20195;-56
2022/11/19 07:58:36;;;;;;;43.50;31.00;;;;;;;13.38;97.02;98975.69;5034703;28;20276;-57
2022/11/19 08:01:08;;;;;;;44.30;31.50;;;;;;;13.47;96.24;98985.13;5034532;28;20291;-56
2022/11/19 08:03:37;;;;;;;45.33;33.15;;;;;;;13.42;95.90;98980.00;5034800;28;20356;-56
2022/11/19 08:06:04;;;;;;;43.40;36.33;;;;;;;13.43;97.11;98989.44;5033446;28;20934;-57
2022/11/19 08:08:32;;;;;;;43.97;32.87;;;;;;;13.64;96.90;98992.81;5034653;28;20192;-56
2022/11/19 08:11:03;;;;;;;45.40;33.27;;;;;;;13.77;96.45;98989.31;5034872;28;20606;-57
2022/11/19 08:13:30;;;;;;;46.30;32.73;;;;;;;13.81;95.52;98980.69;5045370;28;20196;-56
2022/11/19 08:16:00;;;;;;;50.17;34.17;;;;;;;13.79;95.04;98951.47;5034414;28;20235;-56
2022/11/19 08:18:26;;;;;;;45.70;32.13;;;;;;;14.05;94.89;98988.31;5046205;28;20274;-56
2022/11/19 08:20:54;;;;;;;42.23;30.07;;;;;;;14.03;93.72;98988.34;5036598;28;20564;-56
2022/11/19 08:23:22;;;;;;;40.53;30.33;;;;;;;14.07;93.91;98978.81;5034440;28;20221;-56
2022/11/19 08:25:51;;;;;;;45.97;32.07;;;;;;;14.13;93.71;98986.53;5016334;28;20193;-56
2022/11/19 08:28:18;;;;;;;42.03;31.40;;;;;;;14.17;93.64;98991.66;5034806;28;20264;-56
2022/11/19 08:30:47;;;;;;;45.20;31.17;;;;;;;13.93;93.48;98935.00;5066260;28;20686;-55
2022/11/19 08:33:14;;;;;;;42.85;31.92;;;;;;;14.30;93.87;98987.28;5054336;28;20442;-56
2022/11/19 08:35:42;;;;;;;42.20;32.03;;;;;;;14.41;93.75;98992.41;5053829;28;20643;-55
2022/11/19 08:38:11;;;;;;;44.50;33.07;;;;;;;14.51;93.00;98997.50;5053892;28;20225;-55
2022/11/19 08:40:38;;;;;;;44.50;31.53;;;;;;;14.60;92.10;99012.09;5053868;28;20551;-55
2022/11/19 08:43:04;;;;;;;44.47;32.23;;;;;;;14.63;91.75;99015.50;5053527;28;20247;-56
2022/11/19 08:45:33;;;;;;;44.50;31.73;;;;;;;14.60;92.06;98997.44;5054271;28;20192;-55
2022/11/19 08:48:01;;;;;;;45.67;35.92;;;;;;;14.97;90.99;99028.16;5053049;28;20435;-56
2022/11/19 08:50:28;;;;;;;50.83;33.27;;;;;;;15.14;90.36;99011.59;5053623;28;20229;-56
2022/11/19 08:52:56;;;;;;;46.87;33.20;;;;;;;15.17;89.37;99016.75;5053668;28;20257;-56
2022/11/19 08:55:26;;;;;;;41.67;31.90;;;;;;;15.28;89.21;99017.50;5053983;28;20200;-56
2022/11/19 08:57:59;;;;;;;38.60;30.47;;;;;;;15.29;88.77;99008.00;5053444;28;20184;-56
2022/11/19 09:00:26;;;;;;;45.83;33.30;;;;;;;15.43;88.11;99013.91;5053750;28;20198;-56
2022/11/19 09:02:53;;;;;;;45.60;33.20;;;;;;;15.51;87.55;99022.47;5053308;28;20194;-56
2022/11/19 09:05:19;;;;;;;40.87;31.73;;;;;;;15.60;87.18;99017.16;5051985;28;20192;-56
2022/11/19 09:07:46;;;;;;;54.07;36.20;;;;;;;15.72;86.95;99021.34;5039002;28;20206;-56
2022/11/19 09:10:13;;;;;;;52.93;40.40;;;;;;;15.79;86.79;99013.47;5053234;28;20211;-56
2022/11/19 09:12:41;;;;;;;58.37;40.13;;;;;;;15.80;86.58;99022.13;5052884;28;20670;-56
2022/11/19 09:15:09;;;;;;;56.53;36.33;;;;;;;15.59;86.85;99010.28;5050558;28;20279;-56
2022/11/19 09:17:36;;;;;;;53.30;35.73;;;;;;;15.53;87.31;99015.53;5033078;28;20622;-56
2022/11/19 09:20:03;;;;;;;56.73;39.57;;;;;;;15.48;87.78;99011.28;5032517;28;20441;-56
2022/11/19 09:22:31;;;;;;;54.00;36.80;;;;;;;15.43;87.94;99015.63;5033239;28;20219;-56
2022/11/19 09:24:57;;;;;;;47.63;33.90;;;;;;;15.24;88.45;99018.38;5047214;28;20223;-56
2022/11/19 09:27:24;;;;;;;49.50;35.80;;;;;;;15.08;89.58;99021.16;5052701;28;20248;-56
2022/11/19 09:29:52;;;;;;;59.73;39.17;;;;;;;15.03;90.28;99007.41;5039205;28;20201;-57
2022/11/19 09:32:19;;;;;;;55.80;40.30;;;;;;;15.05;90.81;99000.50;5032608;28;20232;-57
2022/11/19 09:34:46;;;;;;;56.97;36.07;;;;;;;15.08;90.75;98998.72;5032767;28;20667;-56
2022/11/19 09:37:13;;;;;;;51.77;33.80;;;;;;;15.04;90.65;98994.47;5032663;28;20204;-56
2022/11/19 09:39:40;;;;;;;47.60;32.43;;;;;;;14.84;90.74;98960.16;5032832;28;20226;-56
2022/11/19 09:42:15;;;;;;;45.97;32.10;;;;;;;15.06;90.48;98984.09;5032484;28;20196;-57
2022/11/19 09:45:10;;;;;;;47.30;33.10;;;;;;;15.18;90.45;98994.31;5032248;28;20202;-57
2022/11/19 09:48:00;;;;;;;40.40;31.17;;;;;;;15.32;90.32;98984.69;5032943;28;20196;-57
2022/11/19 09:50:29;;;;;;;42.17;30.43;;;;;;;15.35;88.70;98988.06;5030143;28;20652;-57
2022/11/19 09:53:02;;;;;;;42.53;30.47;;;;;;;15.39;88.96;98975.97;5032529;28;20228;-56
2022/11/19 09:55:32;;;;;;;44.17;32.27;;;;;;;15.35;89.13;98962.19;5032287;28;20205;-55
2022/11/19 09:58:02;;;;;;;44.27;31.83;;;;;;;15.41;89.48;98968.19;5035417;28;20189;-56
2022/11/19 10:00:32;;;;;;;39.97;30.97;;;;;;;15.54;88.89;98962.88;5052310;28;20193;-57
2022/11/19 10:03:02;;;;;;;45.73;33.57;;;;;;;15.65;88.30;98966.19;5052384;28;20199;-56
2022/11/19 10:05:40;;;;;;;39.33;31.37;;;;;;;15.73;88.59;98948.84;5051826;28;20201;-56
2022/11/19 10:08:25;;;;;;;43.37;32.50;;;;;;;15.83;87.74;98950.41;5052270;28;20208;-56
2022/11/19 10:11:04;;;;;;;36.70;28.43;;;;;;;15.86;87.94;98947.78;5052350;28;20219;-56
2022/11/19 10:13:44;;;;;;;34.67;28.17;;;;;;;15.96;87.65;98958.03;5052600;28;20187;-56
2022/11/19 10:16:28;;;;;;;39.67;29.60;;;;;;;15.97;86.97;98960.56;5051752;28;20190;-57
2022/11/19 10:19:04;;;;;;;42.25;33.30;;;;;;;16.02;86.42;98960.50;5048233;28;20443;-56
2022/11/19 10:21:40;;;;;;;38.23;30.23;;;;;;;15.93;85.89;98964.94;5041227;28;20644;-56
2022/11/19 10:24:16;;;;;;;35.47;28.00;;;;;;;15.99;85.75;98948.44;5051033;28;20184;-57
2022/11/19 10:26:48;;;;;;;34.23;27.47;;;;;;;16.02;85.77;98956.19;5052917;28;20192;-57
2022/11/19 10:29:16;;;;;;;46.53;31.73;;;;;;;16.04;86.45;98945.81;5049442;28;20204;-56
2022/11/19 10:31:50;;;;;;;41.80;30.00;;;;;;;16.02;86.83;98947.56;5051090;28;20261;-56
2022/11/19 10:34:23;;;;;;;38.70;28.00;;;;;;;16.16;86.40;98950.81;5049788;28;20666;-56
2022/11/19 10:36:55;;;;;;;40.27;30.37;;;;;;;16.19;85.96;98940.38;5052110;28;20196;-55
2022/11/19 10:39:27;;;;;;;44.60;29.37;;;;;;;16.24;85.84;98951.53;5051922;28;20270;-56
2022/11/19 10:41:59;;;;;;;38.70;27.53;;;;;;;16.32;85.89;98954.88;5049770;28;20274;-57
2022/11/19 10:44:37;;;;;;;34.13;26.03;;;;;;;16.45;85.76;98951.22;5049443;28;20192;-55
2022/11/19 10:47:07;;;;;;;36.10;26.37;;;;;;;16.59;85.24;98936.31;5051709;28;20186;-55
2022/11/19 10:49:40;;;;;;;33.27;26.93;;;;;;;16.71;84.79;98937.84;5050953;28;20241;-57
2022/11/19 10:52:16;;;;;;;38.37;27.23;;;;;;;16.84;84.54;98940.19;5049433;28;20208;-57
2022/11/19 10:54:44;;;;;;;31.38;26.48;;;;;;;16.89;83.87;98940.97;5060679;28;20424;-57
2022/11/19 10:57:16;;;;;;;31.53;25.63;;;;;;;17.15;82.78;98943.09;5071291;28;20188;-56
2022/11/19 10:59:45;;;;;;;31.73;25.20;;;;;;;17.28;82.19;98941.97;5069739;28;20200;-57
2022/11/19 11:02:23;;;;;;;32.83;24.53;;;;;;;17.36;81.38;98947.84;5056387;28;20196;-57
2022/11/19 11:05:07;;;;;;;28.50;23.13;;;;;;;17.40;81.10;98943.47;5071298;28;20202;-57
2022/11/19 11:07:54;;;;;;;35.20;23.17;;;;;;;17.38;80.24;98927.94;5071302;28;20650;-56
2022/11/19 11:10:30;;;;;;;27.10;22.40;;;;;;;17.26;80.85;98901.34;5068957;28;20196;-57
2022/11/19 11:15:55;;;;;;;28.63;21.67;;;;;;;17.38;81.21;98919.28;5014911;28;20711;-57
2022/11/19 11:18:29;;;;;;;21.77;19.00;;;;;;;17.40;81.09;98918.34;5041281;28;20186;-56
2022/11/19 11:20:58;;;;;;;20.70;17.77;;;;;;;17.50;80.59;98929.41;5050913;28;20191;-56
2022/11/19 11:23:27;;;;;;;21.40;18.50;;;;;;;17.65;80.12;98929.13;5050990;28;20223;-56
2022/11/19 11:26:00;;;;;;;23.60;17.80;;;;;;;17.77;79.01;98915.03;5050976;28;20218;-56
2022/11/19 11:28:28;;;;;;;21.17;17.10;;;;;;;17.91;78.18;98921.59;5049479;28;20188;-56
2022/11/19 11:30:56;;;;;;;19.07;15.17;;;;;;;18.04;77.07;98928.25;5054216;28;20192;-57
2022/11/19 11:33:31;;;;;;;21.67;16.33;;;;;;;18.13;77.02;98921.97;5054348;28;20224;-57
2022/11/19 11:36:01;;;;;;;17.03;14.33;;;;;;;18.13;75.84;98908.97;5054656;28;20241;-57
2022/11/19 11:38:29;;;;;;;18.07;14.70;;;;;;;18.37;74.53;98917.94;5035744;28;20200;-56